Time;durP1;ratioP1;P1;durP2;ratioP2;P2;SDS_P1;SDS_P2;PMS_P1;PMS_P2;Temp;Humidity;BMP_temperature;BMP_pressure;BME280_temperature;BME280_humidity;BME280_pressure;Samples;Min_cycle;Max_cycle;Signal;HPM_P1;HPM_P2
2022/03/07 00:01:14;;;;;;;22.80;14.10;;;4.00;76.40;;;;;;5053244;28;20100;-77
2022/03/07 00:03:40;;;;;;;26.20;15.27;;;3.90;76.40;;;;;;5054319;28;20057;-78
2022/03/07 00:06:06;;;;;;;27.85;14.32;;;3.90;76.60;;;;;;5052857;28;20479;-78
2022/03/07 00:08:32;;;;;;;23.70;13.80;;;3.80;77.10;;;;;;5053856;28;20025;-78
2022/03/07 00:10:58;;;;;;;27.83;14.57;;;3.80;77.10;;;;;;5053094;28;20032;-78
2022/03/07 00:13:24;;;;;;;23.27;12.90;;;3.80;77.20;;;;;;5051507;28;20057;-78
2022/03/07 00:15:49;;;;;;;27.77;14.40;;;3.80;77.30;;;;;;5051822;28;20498;-78
2022/03/07 00:18:15;;;;;;;24.53;14.20;;;3.80;77.30;;;;;;5053819;28;20025;-78
2022/03/07 00:20:41;;;;;;;27.42;15.02;;;3.80;77.30;;;;;;5052860;28;20044;-78
2022/03/07 00:23:11;;;;;;;25.23;14.63;;;3.70;77.60;;;;;;5041516;28;20061;-78
2022/03/07 00:25:37;;;;;;;23.43;14.53;;;3.70;77.90;;;;;;5034300;28;20053;-78
2022/03/07 00:28:04;;;;;;;25.07;14.50;;;3.70;78.10;;;;;;5033785;28;20032;-78
2022/03/07 00:30:29;;;;;;;25.37;14.47;;;3.70;78.20;;;;;;5032958;28;20033;-78
2022/03/07 00:32:55;;;;;;;25.23;14.27;;;3.70;78.10;;;;;;5033757;28;20135;-77
2022/03/07 00:35:21;;;;;;;26.50;14.57;;;3.70;78.30;;;;;;5032595;28;20033;-78
2022/03/07 00:37:47;;;;;;;25.63;14.20;;;3.70;78.30;;;;;;5034143;28;20033;-78
2022/03/07 00:40:12;;;;;;;23.70;13.97;;;3.70;78.50;;;;;;5032456;28;20025;-78
2022/03/07 00:42:38;;;;;;;25.07;14.33;;;3.60;78.50;;;;;;5033676;28;20483;-78
2022/03/07 00:45:08;;;;;;;23.73;13.53;;;3.70;78.80;;;;;;5033670;28;20407;-78
2022/03/07 00:47:35;;;;;;;26.67;14.23;;;3.70;78.80;;;;;;5033521;28;20032;-78
2022/03/07 00:50:04;;;;;;;22.97;13.87;;;3.60;78.70;;;;;;5033874;28;20030;-78
2022/03/07 00:52:29;;;;;;;24.83;13.67;;;3.60;78.90;;;;;;5033671;28;20037;-78
2022/03/07 00:54:55;;;;;;;22.30;12.70;;;3.70;78.90;;;;;;5033824;28;20029;-78
2022/03/07 00:57:21;;;;;;;24.00;14.13;;;3.60;79.00;;;;;;5033303;28;20030;-78
2022/03/07 00:59:46;;;;;;;23.40;12.70;;;3.60;79.00;;;;;;5033788;28;20029;-78
2022/03/07 01:02:12;;;;;;;25.30;13.43;;;3.60;79.80;;;;;;5033644;28;20034;-78
2022/03/07 01:04:38;;;;;;;27.33;13.77;;;3.60;79.30;;;;;;5033570;28;20030;-78
2022/03/07 01:07:04;;;;;;;25.23;13.90;;;3.50;79.70;;;;;;5033574;28;20024;-78
2022/03/07 01:09:30;;;;;;;26.80;13.40;;;3.50;79.70;;;;;;5033512;28;20096;-78
2022/03/07 01:11:55;;;;;;;26.27;14.53;;;3.50;79.70;;;;;;5033504;28;20022;-78
2022/03/07 01:14:21;;;;;;;29.47;14.27;;;3.50;79.80;;;;;;5033375;28;20468;-79
2022/03/07 01:16:47;;;;;;;23.37;13.90;;;3.50;80.00;;;;;;5033621;28;20033;-78
2022/03/07 01:19:13;;;;;;;28.13;14.53;;;3.50;80.00;;;;;;5033373;28;20036;-78
2022/03/07 01:21:39;;;;;;;26.13;13.63;;;3.50;80.30;;;;;;5032927;28;20026;-78
2022/03/07 01:24:06;;;;;;;22.23;12.90;;;3.50;80.40;;;;;;5053353;28;20036;-78
2022/03/07 01:26:33;;;;;;;24.57;13.47;;;3.50;80.70;;;;;;5053177;28;20025;-78
2022/03/07 01:28:59;;;;;;;24.87;13.63;;;3.40;81.10;;;;;;5052092;28;20025;-78
2022/03/07 01:31:25;;;;;;;26.80;14.13;;;3.30;81.40;;;;;;5053342;28;20040;-78
2022/03/07 01:33:50;;;;;;;25.00;13.63;;;3.30;81.70;;;;;;5053032;28;20119;-78
2022/03/07 01:36:16;;;;;;;28.00;14.03;;;3.30;81.50;;;;;;5053062;28;20110;-78
2022/03/07 01:38:42;;;;;;;23.13;13.80;;;3.30;81.50;;;;;;5053251;28;20036;-77
2022/03/07 01:41:08;;;;;;;26.90;14.70;;;3.40;81.60;;;;;;5053130;28;20702;-77
2022/03/07 01:43:34;;;;;;;23.03;13.47;;;3.40;81.30;;;;;;5053143;28;20036;-77
2022/03/07 01:46:00;;;;;;;23.57;13.50;;;3.40;81.20;;;;;;5051673;28;20057;-77
2022/03/07 01:48:26;;;;;;;25.33;13.10;;;3.40;81.20;;;;;;5053434;28;20104;-77
2022/03/07 01:50:52;;;;;;;24.33;13.40;;;3.40;81.10;;;;;;5052110;28;20021;-78
2022/03/07 01:53:21;;;;;;;24.70;13.60;;;3.40;81.20;;;;;;5038858;28;20072;-77
2022/03/07 01:55:46;;;;;;;23.87;13.63;;;3.40;81.20;;;;;;5032121;28;20052;-78
2022/03/07 01:58:12;;;;;;;22.87;13.20;;;3.40;81.40;;;;;;5032124;28;20065;-78
2022/03/07 02:00:39;;;;;;;25.97;13.83;;;3.40;81.60;;;;;;5033258;28;20567;-78
2022/03/07 02:03:06;;;;;;;21.53;12.63;;;3.40;81.40;;;;;;5033073;28;20108;-78
2022/03/07 02:05:32;;;;;;;19.70;12.47;;;3.40;81.40;;;;;;5031760;28;20071;-78
2022/03/07 02:07:58;;;;;;;21.73;12.87;;;3.40;81.50;;;;;;5032848;28;20030;-77
2022/03/07 02:10:28;;;;;;;20.70;12.67;;;3.40;81.40;;;;;;5034472;28;20108;-77
2022/03/07 02:12:54;;;;;;;21.67;12.43;;;3.40;81.60;;;;;;5036827;28;20101;-77
2022/03/07 02:15:20;;;;;;;23.77;12.90;;;3.30;81.80;;;;;;5036518;28;20026;-78
2022/03/07 02:17:46;;;;;;;23.50;13.37;;;3.40;82.70;;;;;;5036778;28;20030;-78
2022/03/07 02:20:13;;;;;;;24.27;13.57;;;3.40;81.80;;;;;;5036830;28;20030;-77
2022/03/07 02:22:39;;;;;;;25.30;13.13;;;3.30;81.90;;;;;;5045318;28;20483;-78
2022/03/07 02:25:06;;;;;;;26.73;14.00;;;3.30;82.20;;;;;;5056291;28;20391;-77
2022/03/07 02:27:33;;;;;;;22.97;13.37;;;3.30;82.40;;;;;;5055686;28;20041;-77
2022/03/07 02:29:59;;;;;;;21.07;12.77;;;3.20;82.40;;;;;;5055870;28;20589;-77
2022/03/07 02:32:26;;;;;;;25.60;13.57;;;3.20;82.60;;;;;;5055914;28;20104;-78
2022/03/07 02:34:52;;;;;;;25.10;13.67;;;3.20;82.60;;;;;;5054447;28;20025;-78
2022/03/07 02:37:18;;;;;;;22.30;13.00;;;3.30;82.80;;;;;;5055743;28;20533;-78
2022/03/07 02:39:44;;;;;;;19.97;12.20;;;3.20;82.80;;;;;;5055720;28;20053;-78
2022/03/07 02:42:12;;;;;;;26.77;14.00;;;3.20;82.80;;;;;;5055736;28;20497;-77
2022/03/07 02:44:39;;;;;;;21.90;13.63;;;3.20;82.80;;;;;;5053984;28;20505;-77
2022/03/07 02:47:05;;;;;;;22.00;12.10;;;3.20;82.90;;;;;;5055442;28;20022;-78
2022/03/07 02:49:31;;;;;;;22.60;13.00;;;3.20;83.00;;;;;;5055742;28;20053;-78
2022/03/07 02:51:57;;;;;;;22.83;13.30;;;3.20;83.00;;;;;;5055665;28;20016;-78
2022/03/07 02:54:22;;;;;;;25.80;13.37;;;3.20;83.00;;;;;;5055647;28;20021;-78
2022/03/07 02:56:48;;;;;;;21.83;12.60;;;3.20;83.10;;;;;;5055638;28;20032;-78
2022/03/07 02:59:15;;;;;;;21.90;12.97;;;3.20;83.30;;;;;;5054344;28;20112;-78
2022/03/07 03:01:43;;;;;;;24.83;13.23;;;3.20;83.50;;;;;;5055675;28;20108;-78
2022/03/07 03:04:09;;;;;;;23.27;13.63;;;3.10;83.70;;;;;;5055832;28;20024;-78
2022/03/07 03:06:35;;;;;;;20.67;12.60;;;3.10;83.90;;;;;;5055392;28;20028;-78
2022/03/07 03:09:00;;;;;;;24.23;14.30;;;3.10;84.10;;;;;;5055521;28;20020;-78
2022/03/07 03:11:26;;;;;;;21.27;13.10;;;3.00;84.20;;;;;;5055327;28;20021;-78
2022/03/07 03:13:52;;;;;;;25.50;13.63;;;3.00;84.30;;;;;;5054012;28;20032;-77
2022/03/07 03:16:17;;;;;;;22.23;13.33;;;3.10;84.30;;;;;;5053878;28;20036;-78
2022/03/07 03:18:43;;;;;;;26.10;14.00;;;3.10;84.20;;;;;;5055458;28;20051;-78
2022/03/07 03:21:09;;;;;;;24.50;13.23;;;3.10;84.10;;;;;;5055029;28;20028;-78
2022/03/07 03:23:35;;;;;;;24.57;14.27;;;3.20;84.00;;;;;;5055277;28;20656;-78
2022/03/07 03:26:00;;;;;;;19.00;11.97;;;3.10;84.00;;;;;;5053937;28;20029;-78
2022/03/07 03:28:26;;;;;;;22.27;13.83;;;3.10;84.30;;;;;;5053930;28;20031;-78
2022/03/07 03:30:53;;;;;;;25.57;13.10;;;3.10;84.50;;;;;;5053837;28;20482;-77
2022/03/07 03:33:19;;;;;;;23.17;12.70;;;3.10;84.70;;;;;;5053817;28;20116;-78
2022/03/07 03:35:45;;;;;;;24.67;13.73;;;3.10;84.60;;;;;;5054920;28;20028;-78
2022/03/07 03:38:10;;;;;;;22.47;13.53;;;3.00;84.80;;;;;;5053626;28;20406;-78
2022/03/07 03:40:37;;;;;;;24.67;13.23;;;3.00;85.00;;;;;;5054740;28;20668;-77
2022/03/07 03:43:03;;;;;;;26.03;13.33;;;3.00;85.10;;;;;;5053455;28;20384;-77
2022/03/07 03:45:29;;;;;;;25.50;13.80;;;3.00;85.10;;;;;;5054649;28;20139;-77
2022/03/07 03:47:54;;;;;;;22.87;13.17;;;3.00;85.40;;;;;;5053382;28;20033;-77
2022/03/07 03:50:20;;;;;;;22.40;12.47;;;2.90;85.60;;;;;;5053396;28;20021;-77
2022/03/07 03:52:46;;;;;;;23.03;13.70;;;2.90;85.60;;;;;;5053974;28;20028;-77
2022/03/07 03:55:13;;;;;;;26.30;13.23;;;2.90;85.80;;;;;;5054498;28;20410;-77
2022/03/07 03:57:39;;;;;;;21.37;12.60;;;2.90;86.00;;;;;;5053303;28;20427;-77
2022/03/07 04:00:08;;;;;;;24.27;13.33;;;2.90;86.20;;;;;;5054702;28;20033;-77
2022/03/07 04:02:33;;;;;;;21.47;12.77;;;2.90;86.20;;;;;;5054514;28;20032;-77
2022/03/07 04:04:59;;;;;;;23.10;13.57;;;2.90;86.20;;;;;;5054153;28;20025;-77
2022/03/07 04:07:25;;;;;;;21.80;12.60;;;3.00;86.10;;;;;;5054347;28;20024;-77
2022/03/07 04:09:51;;;;;;;24.23;13.93;;;3.00;86.20;;;;;;5054188;28;20033;-77
2022/03/07 04:12:16;;;;;;;22.90;13.63;;;3.00;86.10;;;;;;5052605;28;20036;-78
2022/03/07 04:14:42;;;;;;;21.47;13.50;;;3.00;86.10;;;;;;5053047;28;20230;-77
2022/03/07 04:17:08;;;;;;;23.10;13.83;;;2.90;86.20;;;;;;5052744;28;20399;-76
2022/03/07 04:19:34;;;;;;;22.77;14.03;;;3.00;86.20;;;;;;5054065;28;20115;-77
2022/03/07 04:22:00;;;;;;;25.27;13.93;;;3.00;86.40;;;;;;5052688;28;20029;-77
2022/03/07 04:24:28;;;;;;;21.63;13.83;;;3.00;86.10;;;;;;5053784;28;20036;-77
2022/03/07 04:26:54;;;;;;;22.03;13.60;;;3.00;85.90;;;;;;5053980;28;20029;-78
2022/03/07 04:29:20;;;;;;;20.07;12.87;;;2.90;86.00;;;;;;5054060;28;20536;-78
2022/03/07 04:31:45;;;;;;;22.33;13.93;;;3.00;86.10;;;;;;5052573;28;20021;-77
2022/03/07 04:34:14;;;;;;;21.13;12.97;;;3.00;86.00;;;;;;5053564;28;20020;-77
2022/03/07 04:36:40;;;;;;;20.80;13.27;;;3.00;86.00;;;;;;5052651;28;20025;-77
2022/03/07 04:39:08;;;;;;;20.07;12.53;;;3.00;86.00;;;;;;5054159;28;20025;-77
2022/03/07 04:41:35;;;;;;;22.13;13.97;;;3.00;85.90;;;;;;5053936;28;20483;-77
2022/03/07 04:44:01;;;;;;;24.77;13.23;;;2.90;86.10;;;;;;5052551;28;20471;-77
2022/03/07 04:46:28;;;;;;;23.33;13.17;;;2.90;86.10;;;;;;5052310;28;20491;-77
2022/03/07 04:48:54;;;;;;;21.77;13.50;;;2.90;86.10;;;;;;5053227;28;20029;-77
2022/03/07 04:51:20;;;;;;;20.93;13.03;;;2.90;86.40;;;;;;5052994;28;20029;-77
2022/03/07 04:53:46;;;;;;;21.97;13.30;;;2.90;86.60;;;;;;5052258;28;20060;-77
2022/03/07 04:56:12;;;;;;;20.97;12.97;;;2.80;86.70;;;;;;5053566;28;20021;-77
2022/03/07 04:58:38;;;;;;;22.30;13.40;;;2.80;86.90;;;;;;5053586;28;20025;-77
2022/03/07 05:01:05;;;;;;;27.77;14.30;;;2.80;87.10;;;;;;5053615;28;20025;-77
2022/03/07 05:03:30;;;;;;;26.40;14.00;;;2.80;87.00;;;;;;5053536;28;20063;-78
2022/03/07 05:05:56;;;;;;;24.70;12.90;;;2.80;87.00;;;;;;5053705;28;20021;-77
2022/03/07 05:08:22;;;;;;;22.03;13.67;;;2.80;86.90;;;;;;5053640;28;20052;-77
2022/03/07 05:10:48;;;;;;;21.63;13.00;;;2.80;87.00;;;;;;5052335;28;20029;-77
2022/03/07 05:13:14;;;;;;;21.33;13.73;;;2.80;87.10;;;;;;5053567;28;20054;-77
2022/03/07 05:15:40;;;;;;;20.63;13.27;;;2.80;87.10;;;;;;5053427;28;20029;-77
2022/03/07 05:18:06;;;;;;;23.60;13.47;;;2.80;87.10;;;;;;5053722;28;20528;-77
2022/03/07 05:20:32;;;;;;;19.40;12.77;;;2.80;87.30;;;;;;5053658;28;20025;-77
2022/03/07 05:22:58;;;;;;;20.90;13.50;;;2.80;87.30;;;;;;5053341;28;20032;-77
2022/03/07 05:25:24;;;;;;;21.67;13.13;;;2.80;87.20;;;;;;5053194;28;20033;-77
2022/03/07 05:27:50;;;;;;;25.53;13.90;;;2.80;87.40;;;;;;5053298;28;20025;-77
2022/03/07 05:30:19;;;;;;;20.07;13.20;;;2.80;87.10;;;;;;5053391;28;20029;-77
2022/03/07 05:32:50;;;;;;;22.33;14.20;;;2.90;87.10;;;;;;5051927;28;20021;-77
2022/03/07 05:35:17;;;;;;;23.45;14.30;;;2.80;86.90;;;;;;5053484;28;20426;-77
2022/03/07 05:37:43;;;;;;;21.07;14.13;;;2.90;87.10;;;;;;5053121;28;20070;-78
2022/03/07 05:40:10;;;;;;;23.60;13.30;;;2.80;86.80;;;;;;5053392;28;20024;-78
2022/03/07 05:42:37;;;;;;;21.53;13.40;;;2.80;86.90;;;;;;5061281;28;20074;-77
2022/03/07 05:45:05;;;;;;;23.00;12.73;;;2.80;87.10;;;;;;5073770;28;20054;-78
2022/03/07 05:47:31;;;;;;;25.03;13.77;;;2.80;87.20;;;;;;5075350;28;20024;-78
2022/03/07 05:49:56;;;;;;;25.23;14.70;;;2.80;87.20;;;;;;5075565;28;20016;-78
2022/03/07 05:52:23;;;;;;;22.73;13.50;;;2.80;87.30;;;;;;5076540;28;20508;-77
2022/03/07 05:54:49;;;;;;;24.47;14.93;;;2.80;87.10;;;;;;5071692;28;20039;-78
2022/03/07 05:57:15;;;;;;;25.43;14.47;;;2.80;87.20;;;;;;5056356;28;20479;-77
2022/03/07 05:59:41;;;;;;;23.70;13.73;;;2.80;87.20;;;;;;5055884;28;20133;-78
2022/03/07 06:02:07;;;;;;;24.17;15.53;;;2.70;87.20;;;;;;5055683;28;20116;-77
2022/03/07 06:04:33;;;;;;;19.53;12.73;;;2.70;87.30;;;;;;5056552;28;20024;-77
2022/03/07 06:06:59;;;;;;;24.17;14.57;;;2.80;87.30;;;;;;5056954;28;20024;-77
2022/03/07 06:09:24;;;;;;;25.13;15.17;;;2.80;87.30;;;;;;5056876;28;20025;-78
2022/03/07 06:11:50;;;;;;;25.10;14.77;;;2.80;87.30;;;;;;5056633;28;20021;-78
2022/03/07 06:14:16;;;;;;;20.87;12.67;;;2.80;87.40;;;;;;5056503;28;20029;-77
2022/03/07 06:16:42;;;;;;;27.83;15.50;;;2.80;87.20;;;;;;5055375;28;20433;-77
2022/03/07 06:19:08;;;;;;;22.77;14.87;;;2.80;87.40;;;;;;5056563;28;20025;-77
2022/03/07 06:21:34;;;;;;;25.53;13.90;;;2.80;87.40;;;;;;5056248;28;20029;-77
2022/03/07 06:24:00;;;;;;;21.53;13.10;;;2.80;87.40;;;;;;5056700;28;20028;-77
2022/03/07 06:26:25;;;;;;;26.97;15.33;;;2.90;87.40;;;;;;5056264;28;20441;-77
2022/03/07 06:28:52;;;;;;;22.97;14.00;;;2.90;87.30;;;;;;5056301;28;20032;-77
2022/03/07 06:31:18;;;;;;;25.33;14.80;;;2.90;87.10;;;;;;5055113;28;20025;-78
2022/03/07 06:33:44;;;;;;;25.60;15.23;;;3.00;86.90;;;;;;5056400;28;20029;-78
2022/03/07 06:36:10;;;;;;;24.63;14.23;;;3.00;86.80;;;;;;5054451;28;20119;-78
2022/03/07 06:38:37;;;;;;;21.87;13.10;;;3.00;86.80;;;;;;5055095;28;20032;-78
2022/03/07 06:41:02;;;;;;;29.33;15.63;;;3.10;86.80;;;;;;5053646;28;20025;-78
2022/03/07 06:43:28;;;;;;;26.80;13.87;;;3.10;86.60;;;;;;5054553;28;20025;-78
2022/03/07 06:45:54;;;;;;;26.37;14.20;;;3.20;86.30;;;;;;5054392;28;20052;-78
2022/03/07 06:48:21;;;;;;;21.43;12.70;;;3.10;86.10;;;;;;5053852;28;20486;-78
2022/03/07 06:50:47;;;;;;;25.17;14.20;;;3.10;86.20;;;;;;5054390;28;20082;-78
2022/03/07 06:53:13;;;;;;;25.67;14.20;;;3.20;86.30;;;;;;5040407;28;20036;-78
2022/03/07 06:55:39;;;;;;;22.77;14.13;;;3.30;86.10;;;;;;5034919;28;20033;-78
2022/03/07 06:58:05;;;;;;;25.23;13.60;;;3.30;86.00;;;;;;5035628;28;20030;-78
2022/03/07 07:00:31;;;;;;;28.67;15.37;;;3.30;86.00;;;;;;5034116;28;20080;-78
2022/03/07 07:02:56;;;;;;;25.67;15.27;;;3.30;86.10;;;;;;5035182;28;20468;-78
2022/03/07 07:05:23;;;;;;;23.37;13.60;;;3.30;86.10;;;;;;5035640;28;20036;-78
2022/03/07 07:07:49;;;;;;;22.93;12.60;;;3.40;87.00;;;;;;5035200;28;20035;-78
2022/03/07 07:10:17;;;;;;;25.63;14.87;;;3.40;86.20;;;;;;5033611;28;20029;-78
2022/03/07 07:12:43;;;;;;;24.17;14.07;;;3.40;86.00;;;;;;5034324;28;20053;-78
2022/03/07 07:15:09;;;;;;;24.03;14.17;;;3.50;86.20;;;;;;5034824;28;20053;-78
2022/03/07 07:17:35;;;;;;;22.83;13.73;;;3.50;86.10;;;;;;5034325;28;20088;-79
2022/03/07 07:20:02;;;;;;;25.10;14.67;;;3.50;85.90;;;;;;5034547;28;20036;-78
2022/03/07 07:22:27;;;;;;;26.90;14.17;;;3.50;85.80;;;;;;5054006;28;20490;-78
2022/03/07 07:24:53;;;;;;;26.40;14.83;;;3.60;86.20;;;;;;5074335;28;20086;-78
2022/03/07 07:27:20;;;;;;;26.23;14.90;;;3.70;86.10;;;;;;5074440;28;20554;-78
2022/03/07 07:29:46;;;;;;;26.93;14.57;;;3.70;85.90;;;;;;5074867;28;20390;-78
2022/03/07 07:32:12;;;;;;;26.27;14.07;;;3.80;85.50;;;;;;5074345;28;20024;-78
2022/03/07 07:34:38;;;;;;;26.83;14.03;;;3.90;85.20;;;;;;5074575;28;20032;-78
2022/03/07 07:37:04;;;;;;;25.33;14.20;;;4.00;85.20;;;;;;5073472;28;20028;-78
2022/03/07 07:39:29;;;;;;;29.30;14.47;;;4.00;84.90;;;;;;5074869;28;20099;-78
2022/03/07 07:41:56;;;;;;;26.30;14.37;;;4.10;84.70;;;;;;5058176;28;20021;-78
2022/03/07 07:44:22;;;;;;;26.07;13.90;;;4.10;84.60;;;;;;5053137;28;20463;-78
2022/03/07 07:46:47;;;;;;;24.00;13.70;;;4.30;85.00;;;;;;5054696;28;20049;-78
2022/03/07 07:49:14;;;;;;;21.20;13.47;;;4.30;85.10;;;;;;5054815;28;20056;-78
2022/03/07 07:51:40;;;;;;;24.07;13.23;;;4.40;85.10;;;;;;5053651;28;20021;-78
2022/03/07 07:54:06;;;;;;;28.53;14.43;;;4.40;85.10;;;;;;5034641;28;20032;-78
2022/03/07 07:56:32;;;;;;;27.80;13.57;;;4.50;84.50;;;;;;5034487;28;20475;-78
2022/03/07 07:58:57;;;;;;;25.13;13.10;;;4.60;84.00;;;;;;5034194;28;20035;-79
2022/03/07 08:01:23;;;;;;;24.63;13.27;;;4.60;83.40;;;;;;5032878;28;20375;-78
2022/03/07 08:03:49;;;;;;;22.20;13.48;;;4.70;84.00;;;;;;5034412;28;20494;-78
2022/03/07 08:06:15;;;;;;;27.67;14.68;;;4.80;85.10;;;;;;5034400;28;20391;-78
2022/03/07 08:08:40;;;;;;;24.35;13.90;;;4.90;87.10;;;;;;5033478;28;20431;-79
2022/03/07 08:11:06;;;;;;;26.98;13.95;;;5.00;88.10;;;;;;5033365;28;20022;-78
2022/03/07 08:13:32;;;;;;;26.60;12.52;;;5.10;89.00;;;;;;5034691;28;20080;-78
2022/03/07 08:15:58;;;;;;;24.95;13.45;;;5.20;87.60;;;;;;5034273;28;20483;-78
2022/03/07 08:18:24;;;;;;;23.85;12.57;;;5.40;87.70;;;;;;5040842;28;20035;-79
2022/03/07 08:20:51;;;;;;;21.02;11.18;;;5.50;86.30;;;;;;5074082;28;20028;-78
2022/03/07 08:23:17;;;;;;;25.38;12.77;;;5.50;85.60;;;;;;5074060;28;20048;-78
2022/03/07 08:25:43;;;;;;;31.42;13.77;;;5.50;85.80;;;;;;5066839;28;20035;-79
2022/03/07 08:28:08;;;;;;;32.70;14.15;;;5.60;88.10;;;;;;5054027;28;20021;-79
2022/03/07 08:30:34;;;;;;;25.92;13.32;;;5.70;87.80;;;;;;5061895;28;20109;-79
2022/03/07 08:33:01;;;;;;;33.78;14.00;;;5.80;86.20;;;;;;5053699;28;20025;-79
2022/03/07 08:35:27;;;;;;;30.80;15.10;;;5.70;86.50;;;;;;5057069;28;20047;-79
2022/03/07 08:37:53;;;;;;;31.35;14.23;;;5.80;87.60;;;;;;5050316;28;20056;-79
2022/03/07 08:40:21;;;;;;;29.40;15.55;;;5.90;88.20;;;;;;5057109;28;20025;-79
2022/03/07 08:42:47;;;;;;;24.63;14.20;;;6.00;87.70;;;;;;5050279;28;20033;-78
2022/03/07 08:45:13;;;;;;;21.77;13.85;;;6.00;85.00;;;;;;5053558;28;20056;-79
2022/03/07 08:47:40;;;;;;;32.22;15.15;;;6.00;84.90;;;;;;5052602;28;20028;-79
2022/03/07 08:50:09;;;;;;;29.67;14.45;;;6.10;85.20;;;;;;5067758;28;20151;-78
2022/03/07 08:52:36;;;;;;;26.33;14.00;;;6.20;84.70;;;;;;5063573;28;20017;-79
2022/03/07 08:55:02;;;;;;;26.90;14.43;;;6.20;84.30;;;;;;5056307;28;20029;-78
2022/03/07 08:57:28;;;;;;;22.33;11.63;;;6.20;82.80;;;;;;5064600;28;20034;-79
2022/03/07 08:59:54;;;;;;;14.70;9.43;;;6.30;81.30;;;;;;5068620;28;20028;-79
2022/03/07 09:02:19;;;;;;;17.98;9.48;;;6.30;80.20;;;;;;5069374;28;20025;-79
2022/03/07 09:04:45;;;;;;;15.18;9.32;;;6.30;80.70;;;;;;5050765;28;20036;-78
2022/03/07 09:07:11;;;;;;;16.02;9.15;;;6.30;80.10;;;;;;5052352;28;20041;-79
2022/03/07 09:09:37;;;;;;;14.77;9.02;;;6.40;79.40;;;;;;5069760;28;20051;-79
2022/03/07 09:12:04;;;;;;;17.35;9.65;;;6.40;78.80;;;;;;5071672;28;20119;-79
2022/03/07 09:14:30;;;;;;;18.95;9.90;;;6.40;79.10;;;;;;5069613;28;20021;-79
2022/03/07 09:16:57;;;;;;;17.25;10.13;;;6.40;78.10;;;;;;5069358;28;20131;-79
2022/03/07 09:19:22;;;;;;;16.20;9.07;;;6.40;78.30;;;;;;5069892;28;20085;-79
2022/03/07 09:21:48;;;;;;;16.98;10.30;;;6.50;77.90;;;;;;5062743;28;20032;-80
2022/03/07 09:24:15;;;;;;;19.27;10.05;;;6.50;78.60;;;;;;5056256;28;20029;-80
2022/03/07 09:26:44;;;;;;;20.70;10.48;;;6.50;77.50;;;;;;5052388;28;20376;-80
2022/03/07 09:29:10;;;;;;;20.23;10.95;;;6.50;76.70;;;;;;5052066;28;20063;-80
2022/03/07 09:31:36;;;;;;;24.83;11.90;;;6.50;76.50;;;;;;5053503;28;20017;-80
2022/03/07 09:34:02;;;;;;;28.70;12.65;;;6.60;78.00;;;;;;5051184;28;20402;-80
2022/03/07 09:36:28;;;;;;;18.02;10.60;;;6.60;77.00;;;;;;5052696;28;20031;-80
2022/03/07 09:38:54;;;;;;;19.65;11.90;;;6.60;75.80;;;;;;5059231;28;20025;-80
2022/03/07 09:41:20;;;;;;;25.25;11.80;;;6.70;75.10;;;;;;5067776;28;20028;-81
2022/03/07 09:43:47;;;;;;;21.08;11.65;;;6.70;75.00;;;;;;5060937;28;20045;-80
2022/03/07 09:46:14;;;;;;;20.70;11.73;;;6.70;76.50;;;;;;5051501;28;20060;-80
2022/03/07 09:48:44;;;;;;;19.73;11.02;;;6.80;76.00;;;;;;5050369;28;20048;-80
2022/03/07 09:51:10;;;;;;;23.40;12.05;;;6.90;75.60;;;;;;5052706;28;20116;-81
2022/03/07 09:53:36;;;;;;;23.20;11.32;;;7.00;75.20;;;;;;5052340;28;20021;-80
2022/03/07 09:56:02;;;;;;;24.88;11.65;;;7.00;75.10;;;;;;5052333;28;20023;-80
2022/03/07 09:58:28;;;;;;;24.00;11.48;;;7.00;74.00;;;;;;5050812;28;20467;-79
2022/03/07 10:01:12;;;;;;;26.17;12.15;;;7.10;74.20;;;;;;5061239;28;20032;-80
2022/03/07 10:03:38;;;;;;;20.67;11.52;;;7.10;74.50;;;;;;5070580;28;20036;-80
2022/03/07 10:06:15;;;;;;;22.35;12.30;;;7.10;73.90;;;;;;5071767;28;20016;-80
2022/03/07 10:08:54;;;;;;;21.25;11.43;;;7.10;74.40;;;;;;5071567;28;20486;-80
2022/03/07 10:11:21;;;;;;;19.15;11.25;;;7.20;75.00;;;;;;5068674;28;20024;-79
2022/03/07 10:13:50;;;;;;;20.33;11.43;;;7.30;76.10;;;;;;5068998;28;20116;-78
2022/03/07 10:16:16;;;;;;;24.52;11.73;;;7.40;77.10;;;;;;5068219;28;20032;-80
2022/03/07 10:18:52;;;;;;;19.80;10.88;;;7.50;77.20;;;;;;5070317;28;20020;-81
2022/03/07 10:21:25;;;;;;;16.85;10.50;;;7.50;74.90;;;;;;5070544;28;20737;-79
2022/03/07 10:23:56;;;;;;;17.92;10.20;;;7.50;72.30;;;;;;5050418;28;20431;-78
2022/03/07 10:26:23;;;;;;;20.77;11.18;;;7.40;71.80;;;;;;5050826;28;20100;-79
2022/03/07 10:28:54;;;;;;;15.48;9.82;;;7.50;73.60;;;;;;5069307;28;20426;-77
2022/03/07 10:31:22;;;;;;;18.95;10.88;;;7.60;72.90;;;;;;5067703;28;20044;-79
2022/03/07 10:34:01;;;;;;;17.77;10.10;;;7.70;73.20;;;;;;5059850;28;20431;-77
2022/03/07 10:36:36;;;;;;;15.90;9.18;;;7.70;71.80;;;;;;5060833;28;20387;-78
2022/03/07 10:39:06;;;;;;;13.02;8.82;;;7.60;70.50;;;;;;5060167;28;20028;-76
2022/03/07 10:41:37;;;;;;;17.00;9.75;;;7.70;70.30;;;;;;5050101;28;20021;-78
2022/03/07 10:44:24;;;;;;;13.32;8.68;;;7.70;70.00;;;;;;5054881;28;20025;-80
2022/03/07 10:46:50;;;;;;;18.95;10.52;;;7.80;71.30;;;;;;5054991;28;20135;-81
2022/03/07 10:49:19;;;;;;;17.80;10.25;;;7.90;70.50;;;;;;5056329;28;20067;-79
2022/03/07 10:51:53;;;;;;;17.63;9.63;;;7.90;69.30;;;;;;5071565;28;20483;-79
2022/03/07 10:54:21;;;;;;;17.30;9.55;;;8.00;69.60;;;;;;5040263;28;20081;-79
2022/03/07 10:56:54;;;;;;;17.20;9.38;;;8.00;69.60;;;;;;5068894;28;20020;-80
2022/03/07 10:59:31;;;;;;;13.70;8.10;;;8.10;70.10;;;;;;5073452;28;20056;-79
2022/03/07 11:02:04;;;;;;;15.18;8.88;;;8.20;68.00;;;;;;5075619;28;20032;-77
2022/03/07 11:04:30;;;;;;;13.57;8.10;;;8.30;67.60;;;;;;5073757;28;20039;-79
2022/03/07 11:06:56;;;;;;;16.52;8.88;;;8.40;67.60;;;;;;5068415;28;20032;-79
2022/03/07 11:09:22;;;;;;;13.05;8.48;;;8.40;65.70;;;;;;5055250;28;20055;-78
2022/03/07 11:11:50;;;;;;;17.88;9.20;;;8.30;64.50;;;;;;5044442;28;20052;-79
2022/03/07 11:14:17;;;;;;;16.80;9.25;;;8.40;66.20;;;;;;5050709;28;20028;-74
2022/03/07 11:16:45;;;;;;;16.33;9.02;;;8.50;65.20;;;;;;5051456;28;20029;-74
2022/03/07 11:19:12;;;;;;;15.68;9.80;;;8.60;65.90;;;;;;5054298;28;20055;-74
2022/03/07 11:21:41;;;;;;;17.13;10.07;;;8.60;63.80;;;;;;5058145;28;20020;-74
2022/03/07 11:24:08;;;;;;;19.52;9.77;;;8.60;63.70;;;;;;5056180;28;20580;-74
2022/03/07 11:26:34;;;;;;;16.58;10.55;;;8.60;63.20;;;;;;5055311;28;20085;-74
2022/03/07 11:28:59;;;;;;;17.40;9.75;;;8.60;62.80;;;;;;5065281;28;20017;-74
2022/03/07 11:31:27;;;;;;;19.48;10.73;;;8.70;63.90;;;;;;5067250;28;20031;-74
2022/03/07 11:33:54;;;;;;;18.02;10.50;;;8.70;63.40;;;;;;5063133;28;20371;-75
2022/03/07 11:36:22;;;;;;;20.45;10.40;;;8.80;63.40;;;;;;5067624;28;20030;-74
2022/03/07 11:38:52;;;;;;;18.70;10.20;;;8.90;63.80;;;;;;5057055;28;20021;-73
2022/03/07 11:41:30;;;;;;;20.48;10.07;;;9.00;62.60;;;;;;5057107;28;20083;-73
2022/03/07 11:44:00;;;;;;;21.65;10.63;;;8.90;61.30;;;;;;5050830;28;20024;-73
2022/03/07 11:46:38;;;;;;;19.67;10.88;;;8.90;61.80;;;;;;5058604;28;20041;-74
2022/03/07 11:49:06;;;;;;;15.68;10.13;;;9.00;63.60;;;;;;5055193;28;20024;-74
2022/03/07 11:51:36;;;;;;;21.33;10.90;;;8.90;61.40;;;;;;5052130;28;20120;-74
2022/03/07 11:54:02;;;;;;;19.60;10.45;;;9.00;62.20;;;;;;5045004;28;20031;-74
2022/03/07 11:56:32;;;;;;;17.30;11.05;;;9.20;63.60;;;;;;5056579;28;20025;-74
2022/03/07 11:59:00;;;;;;;18.73;10.57;;;9.20;61.80;;;;;;5053390;28;20043;-75
2022/03/07 12:01:26;;;;;;;20.98;11.80;;;9.20;63.50;;;;;;5047926;28;20029;-74
2022/03/07 12:03:53;;;;;;;23.75;11.43;;;9.30;62.50;;;;;;5053134;28;20100;-74
2022/03/07 12:06:21;;;;;;;22.88;12.82;;;9.30;62.20;;;;;;5047683;28;20036;-74
2022/03/07 12:08:57;;;;;;;23.73;12.02;;;9.30;62.00;;;;;;5045040;28;20067;-73
2022/03/07 12:11:34;;;;;;;22.80;12.70;;;9.40;62.60;;;;;;5048044;28;20021;-74
2022/03/07 12:14:04;;;;;;;23.85;11.90;;;9.40;61.80;;;;;;5049088;28;20021;-75
2022/03/07 12:16:41;;;;;;;22.75;12.68;;;9.40;62.80;;;;;;5050132;28;20021;-74
2022/03/07 12:19:18;;;;;;;23.15;13.48;;;9.60;63.20;;;;;;5050168;28;20029;-74
2022/03/07 12:21:46;;;;;;;20.30;12.77;;;9.60;61.70;;;;;;5048643;28;20025;-74
2022/03/07 12:24:17;;;;;;;20.70;11.80;;;9.60;61.50;;;;;;5049221;28;20024;-74
2022/03/07 12:26:43;;;;;;;22.45;12.85;;;9.70;63.20;;;;;;5049587;28;20036;-73
2022/03/07 12:29:08;;;;;;;24.83;12.93;;;9.90;63.90;;;;;;5048595;28;20032;-74
2022/03/07 12:31:34;;;;;;;24.27;12.50;;;9.80;61.90;;;;;;5049159;28;20032;-74
2022/03/07 12:34:00;;;;;;;27.02;13.82;;;9.90;61.60;;;;;;5049939;28;20023;-73
2022/03/07 12:36:27;;;;;;;22.80;12.98;;;9.80;61.50;;;;;;5049347;28;20049;-73